Time;durP1;ratioP1;P1;durP2;ratioP2;P2;SDS_P1;SDS_P2;PMS_P1;PMS_P2;Temp;Humidity;BMP_temperature;BMP_pressure;BME280_temperature;BME280_humidity;BME280_pressure;Samples;Min_cycle;Max_cycle;Signal;HPM_P1;HPM_P2
2023/08/30 00:01:56;;;;;;;8.50;4.65;;;;;;;13.60;100.00;100918.25;5097427;28;20530;-79
2023/08/30 00:04:22;;;;;;;7.28;4.70;;;;;;;13.62;100.00;100918.09;5077827;28;20123;-79
2023/08/30 00:06:47;;;;;;;7.80;4.93;;;;;;;13.62;100.00;100918.09;5095964;28;20351;-79
2023/08/30 00:09:13;;;;;;;8.02;5.22;;;;;;;13.62;100.00;100912.75;5095766;28;20574;-81
2023/08/30 00:11:38;;;;;;;7.38;5.50;;;;;;;13.63;100.00;100907.25;5077573;28;20024;-80
2023/08/30 00:14:06;;;;;;;11.98;5.05;;;;;;;13.64;100.00;100908.91;5096413;28;20468;-78
2023/08/30 00:16:33;;;;;;;7.47;5.05;;;;;;;13.65;100.00;100909.75;5096257;28;20348;-80
2023/08/30 00:18:59;;;;;;;11.20;5.40;;;;;;;13.63;100.00;100895.69;5095545;28;20113;-80
2023/08/30 00:21:25;;;;;;;9.63;4.47;;;;;;;13.64;100.00;100897.38;5096139;28;20117;-80
2023/08/30 00:23:51;;;;;;;7.97;4.88;;;;;;;13.64;100.00;100900.88;5077104;28;20055;-80
2023/08/30 00:26:16;;;;;;;7.05;4.90;;;;;;;13.66;100.00;100900.72;5095295;28;20071;-79
2023/08/30 00:28:41;;;;;;;8.73;5.63;;;;;;;13.65;100.00;100894.53;5077366;28;20036;-79
2023/08/30 00:31:07;;;;;;;9.70;5.53;;;;;;;13.66;100.00;100892.69;5095492;28;20063;-79
2023/08/30 00:33:32;;;;;;;7.47;5.47;;;;;;;13.68;100.00;100899.56;5096197;28;20344;-80
2023/08/30 00:35:58;;;;;;;8.98;5.72;;;;;;;13.71;100.00;100890.41;5077528;28;20101;-80
2023/08/30 00:38:25;;;;;;;7.45;5.40;;;;;;;13.72;100.00;100886.75;5077124;28;20476;-80
2023/08/30 00:40:52;;;;;;;11.00;5.60;;;;;;;13.73;100.00;100888.41;5077915;28;20035;-79
2023/08/30 00:43:18;;;;;;;9.25;5.22;;;;;;;13.72;100.00;100884.06;5095319;28;20097;-79
2023/08/30 00:45:44;;;;;;;9.55;5.47;;;;;;;13.70;100.00;100889.56;5076824;28;20036;-79
2023/08/30 00:48:10;;;;;;;9.45;5.60;;;;;;;13.70;100.00;100881.56;5095158;28;20051;-80
2023/08/30 00:50:36;;;;;;;8.63;5.07;;;;;;;13.68;100.00;100880.03;5094923;28;20043;-79
2023/08/30 00:53:05;;;;;;;10.02;5.57;;;;;;;13.64;100.00;100878.66;5095509;28;20032;-80
2023/08/30 00:55:33;;;;;;;7.90;4.75;;;;;;;13.64;100.00;100882.16;5095008;28;20036;-79
2023/08/30 00:57:59;;;;;;;9.90;5.40;;;;;;;13.61;100.00;100863.75;5095529;28;20081;-80
2023/08/30 01:00:24;;;;;;;7.47;4.68;;;;;;;13.59;100.00;100868.44;5095438;28;20082;-79
2023/08/30 01:02:50;;;;;;;8.60;5.35;;;;;;;13.56;100.00;100864.25;5095073;28;20028;-79
2023/08/30 01:05:16;;;;;;;8.15;5.30;;;;;;;13.52;100.00;100868.22;5096142;28;20467;-79
2023/08/30 01:07:41;;;;;;;7.05;5.80;;;;;;;13.50;100.00;100864.88;5094070;28;20036;-80
2023/08/30 01:10:08;;;;;;;8.85;5.25;;;;;;;13.46;100.00;100858.16;5094589;28;20036;-79
2023/08/30 01:12:47;;;;;;;12.07;5.53;;;;;;;13.44;100.00;100860.16;5095320;28;20125;-80
2023/08/30 01:15:19;;;;;;;8.55;5.60;;;;;;;13.42;100.00;100862.16;5094554;28;20042;-79
2023/08/30 01:17:48;;;;;;;8.57;5.20;;;;;;;13.38;100.00;100856.28;5094751;28;20150;-79
2023/08/30 01:20:17;;;;;;;11.68;5.47;;;;;;;13.36;100.00;100855.59;5094726;28;20035;-78
2023/08/30 01:22:53;;;;;;;11.25;6.13;;;;;;;13.40;100.00;100851.63;5094387;28;20406;-80
2023/08/30 01:25:33;;;;;;;9.70;5.95;;;;;;;13.43;100.00;100847.78;5094844;28;20134;-80
2023/08/30 01:28:04;;;;;;;11.05;5.75;;;;;;;13.49;100.00;100847.16;5094783;28;20039;-80
2023/08/30 01:30:32;;;;;;;7.50;5.40;;;;;;;13.53;100.00;100842.34;5094742;28;20028;-79
2023/08/30 01:33:00;;;;;;;10.77;5.70;;;;;;;13.56;100.00;100842.84;5094169;28;20059;-78
2023/08/30 01:35:32;;;;;;;10.18;5.55;;;;;;;13.57;100.00;100833.03;5094351;28;20027;-78
2023/08/30 01:37:58;;;;;;;10.32;5.78;;;;;;;13.57;100.00;100833.84;5094774;28;20039;-79
2023/08/30 01:40:24;;;;;;;11.02;5.55;;;;;;;13.57;100.00;100836.53;5094488;28;20468;-79
2023/08/30 01:42:50;;;;;;;13.27;6.22;;;;;;;13.58;100.00;100830.19;5094435;28;20028;-79
2023/08/30 01:45:17;;;;;;;9.20;5.65;;;;;;;13.60;100.00;100834.50;5075529;28;20040;-80
2023/08/30 01:47:44;;;;;;;12.00;6.03;;;;;;;13.61;100.00;100823.66;5076065;28;20036;-79
2023/08/30 01:50:11;;;;;;;11.35;6.10;;;;;;;13.61;100.00;100830.84;5075906;28;20032;-80
2023/08/30 01:52:37;;;;;;;13.50;6.38;;;;;;;13.62;100.00;100827.19;5094497;28;20031;-81
2023/08/30 01:55:04;;;;;;;10.98;6.57;;;;;;;13.64;100.00;100826.00;5093678;28;20526;-79
2023/08/30 01:57:29;;;;;;;13.52;6.68;;;;;;;13.66;100.00;100828.53;5075735;28;20535;-80
2023/08/30 01:59:55;;;;;;;13.30;6.70;;;;;;;13.69;100.00;100823.72;5094478;28;20154;-79
2023/08/30 02:02:20;;;;;;;11.38;6.70;;;;;;;13.73;100.00;100816.19;5094261;28;20047;-80
2023/08/30 02:04:45;;;;;;;13.45;6.35;;;;;;;13.75;100.00;100814.22;5095208;28;20032;-78
2023/08/30 02:07:20;;;;;;;11.85;7.15;;;;;;;13.78;100.00;100813.03;5075800;28;20028;-79
2023/08/30 02:09:50;;;;;;;10.15;6.40;;;;;;;13.80;100.00;100825.25;5094029;28;20024;-79
2023/08/30 02:12:17;;;;;;;12.00;6.93;;;;;;;13.81;100.00;100815.41;5093910;28;20078;-79
2023/08/30 02:14:45;;;;;;;12.77;6.25;;;;;;;13.80;100.00;100803.88;5093664;28;20081;-80
2023/08/30 02:17:13;;;;;;;10.77;6.55;;;;;;;13.81;100.00;100813.59;5093349;28;20053;-78
2023/08/30 02:19:39;;;;;;;9.50;6.53;;;;;;;13.81;100.00;100807.38;5075702;28;20368;-80
2023/08/30 02:22:04;;;;;;;11.20;7.00;;;;;;;13.81;100.00;100800.22;5075175;28;20032;-79
2023/08/30 02:24:30;;;;;;;15.02;6.97;;;;;;;13.81;100.00;100808.22;5075008;28;20039;-79
2023/08/30 02:26:55;;;;;;;11.95;6.70;;;;;;;13.80;100.00;100803.03;5093538;28;20081;-80
2023/08/30 02:29:20;;;;;;;11.23;6.43;;;;;;;13.81;100.00;100804.69;5075067;28;20032;-80
2023/08/30 02:31:46;;;;;;;16.95;6.82;;;;;;;13.81;100.00;100794.00;5075188;28;20067;-80
2023/08/30 02:34:11;;;;;;;13.68;7.43;;;;;;;13.79;100.00;100796.00;5093326;28;20104;-82
2023/08/30 02:36:36;;;;;;;12.43;7.30;;;;;;;13.74;100.00;100786.63;5075180;28;20032;-81
2023/08/30 02:39:03;;;;;;;12.23;6.70;;;;;;;13.73;100.00;100790.31;5093006;28;20040;-79
2023/08/30 02:41:28;;;;;;;12.25;8.02;;;;;;;13.67;100.00;100779.41;5093324;28;20028;-79
2023/08/30 02:43:54;;;;;;;15.23;8.40;;;;;;;13.58;100.00;100779.41;5092688;28;20043;-81
2023/08/30 02:46:19;;;;;;;16.63;8.07;;;;;;;13.49;100.00;100777.66;5092728;28;20040;-81
2023/08/30 02:48:45;;;;;;;13.18;8.07;;;;;;;13.42;100.00;100779.31;5074515;28;20456;-81
2023/08/30 02:51:10;;;;;;;12.65;7.90;;;;;;;13.33;100.00;100772.19;5074900;28;20111;-82
2023/08/30 02:53:35;;;;;;;14.55;7.63;;;;;;;13.24;100.00;100763.28;5093004;28;20428;-79
2023/08/30 02:56:01;;;;;;;13.82;7.65;;;;;;;13.15;100.00;100759.75;5092565;28;20063;-79
2023/08/30 02:58:26;;;;;;;14.32;8.00;;;;;;;13.08;100.00;100755.19;5093491;28;20031;-80
2023/08/30 03:00:52;;;;;;;12.38;7.50;;;;;;;13.01;100.00;100752.31;5092645;28;20056;-79
2023/08/30 03:03:18;;;;;;;13.38;8.00;;;;;;;12.96;100.00;100744.78;5093935;28;20511;-80
2023/08/30 03:05:43;;;;;;;11.40;7.63;;;;;;;12.92;100.00;100743.41;5092535;28;20107;-79
2023/08/30 03:08:09;;;;;;;10.25;6.47;;;;;;;12.89;100.00;100746.41;5074509;28;20032;-80
2023/08/30 03:10:34;;;;;;;9.90;7.05;;;;;;;12.86;100.00;100749.38;5092432;28;20032;-79
2023/08/30 03:12:59;;;;;;;10.75;6.57;;;;;;;12.84;100.00;100744.19;5092721;28;20116;-79
2023/08/30 03:15:25;;;;;;;13.25;6.45;;;;;;;12.85;100.00;100745.03;5092584;28;20036;-79
2023/08/30 03:17:50;;;;;;;11.57;6.20;;;;;;;12.84;100.00;100733.53;5092751;28;20372;-80
2023/08/30 03:20:15;;;;;;;16.33;6.88;;;;;;;12.83;100.00;100731.00;5074180;28;20031;-79
2023/08/30 03:22:42;;;;;;;10.13;6.95;;;;;;;12.80;100.00;100726.81;5074877;28;20445;-79
2023/08/30 03:25:09;;;;;;;9.65;7.05;;;;;;;12.76;100.00;100724.63;5074377;28;20036;-80
2023/08/30 03:27:35;;;;;;;12.05;6.35;;;;;;;12.68;100.00;100718.22;5092324;28;20413;-80
2023/08/30 03:30:01;;;;;;;11.88;7.00;;;;;;;12.63;100.00;100723.19;5092394;28;20082;-79
2023/08/30 03:32:27;;;;;;;12.40;6.95;;;;;;;12.58;100.00;100724.66;5080653;28;20126;-80
2023/08/30 03:34:52;;;;;;;10.65;7.13;;;;;;;12.51;100.00;100713.78;5080964;28;20071;-78
2023/08/30 03:37:17;;;;;;;12.52;7.07;;;;;;;12.45;100.00;100717.88;5098958;28;20028;-79
2023/08/30 03:39:43;;;;;;;10.77;6.88;;;;;;;12.38;100.00;100722.16;5099558;28;20039;-79
2023/08/30 03:42:09;;;;;;;14.00;7.38;;;;;;;12.32;100.00;100723.59;5098992;28;20027;-79
2023/08/30 03:44:34;;;;;;;14.63;8.63;;;;;;;12.24;100.00;100728.03;5098999;28;20032;-80
2023/08/30 03:47:00;;;;;;;12.27;6.93;;;;;;;12.16;100.00;100726.13;5080406;28;20036;-79
2023/08/30 03:49:25;;;;;;;11.20;7.25;;;;;;;12.10;100.00;100718.72;5099126;28;20125;-79
2023/08/30 03:51:51;;;;;;;14.20;7.78;;;;;;;12.03;100.00;100715.00;5099194;28;20024;-80
2023/08/30 03:54:16;;;;;;;11.10;7.75;;;;;;;11.96;100.00;100715.59;5098862;28;20028;-80
2023/08/30 03:56:45;;;;;;;12.38;7.85;;;;;;;11.88;100.00;100706.63;5098966;28;20039;-78
2023/08/30 03:59:11;;;;;;;17.40;7.57;;;;;;;11.84;100.00;100703.44;5099718;28;20061;-80
2023/08/30 04:01:37;;;;;;;12.57;8.13;;;;;;;11.80;100.00;100702.06;5098540;28;20526;-79
2023/08/30 04:04:03;;;;;;;15.40;8.10;;;;;;;11.75;100.00;100705.19;5099697;28;20036;-80
2023/08/30 04:06:28;;;;;;;12.23;7.38;;;;;;;11.72;100.00;100699.28;5098668;28;20073;-80
2023/08/30 04:08:53;;;;;;;14.65;8.57;;;;;;;11.73;100.00;100687.66;5080256;28;20028;-80
2023/08/30 04:11:19;;;;;;;13.65;7.80;;;;;;;11.76;100.00;100685.56;5080645;28;20129;-80
2023/08/30 04:13:44;;;;;;;12.38;7.60;;;;;;;11.79;100.00;100685.25;5080407;28;20364;-79
2023/08/30 04:16:10;;;;;;;10.57;7.90;;;;;;;11.83;100.00;100689.25;5098963;28;20028;-81
2023/08/30 04:18:36;;;;;;;12.88;8.18;;;;;;;11.86;100.00;100690.78;5098674;28;20039;-78
2023/08/30 04:21:02;;;;;;;13.00;8.38;;;;;;;11.87;100.00;100689.81;5099256;28;20036;-80
2023/08/30 04:23:28;;;;;;;13.90;8.38;;;;;;;11.87;100.00;100686.28;5098821;28;20039;-79
2023/08/30 04:25:54;;;;;;;15.80;7.85;;;;;;;11.87;100.00;100686.28;5098416;28;20042;-79
2023/08/30 04:28:19;;;;;;;12.65;8.02;;;;;;;11.87;100.00;100679.16;5081118;28;20110;-79
2023/08/30 04:30:45;;;;;;;13.35;7.70;;;;;;;11.89;100.00;100673.66;5080473;28;20052;-80
2023/08/30 04:33:10;;;;;;;11.70;8.25;;;;;;;11.91;100.00;100672.53;5064230;28;20154;-81
2023/08/30 04:35:35;;;;;;;12.02;8.57;;;;;;;11.96;100.00;100672.09;5098374;28;20395;-79
2023/08/30 04:38:03;;;;;;;13.43;8.02;;;;;;;11.99;100.00;100667.28;5098601;28;20032;-80
2023/08/30 04:40:30;;;;;;;14.40;8.55;;;;;;;12.03;100.00;100667.00;5098398;28;20032;-80
2023/08/30 04:42:55;;;;;;;14.80;8.25;;;;;;;12.07;100.00;100660.38;5095613;28;20055;-80
2023/08/30 04:45:22;;;;;;;11.32;7.78;;;;;;;12.11;100.00;100659.06;5095203;28;20471;-80
2023/08/30 04:47:48;;;;;;;11.90;8.18;;;;;;;12.14;100.00;100656.94;5077141;28;20141;-79
2023/08/30 04:50:14;;;;;;;14.00;8.52;;;;;;;12.17;100.00;100664.63;5095327;28;20373;-80
2023/08/30 04:52:39;;;;;;;16.58;9.13;;;;;;;12.20;100.00;100657.31;5095533;28;20028;-80
2023/08/30 04:55:06;;;;;;;14.43;8.32;;;;;;;12.21;100.00;100662.50;5095234;28;20036;-80
2023/08/30 04:57:31;;;;;;;17.35;8.32;;;;;;;12.24;100.00;100661.34;5098060;28;20058;-79
2023/08/30 04:59:57;;;;;;;13.30;8.27;;;;;;;12.24;100.00;100667.53;5096552;28;20036;-78
2023/08/30 05:02:22;;;;;;;13.57;8.55;;;;;;;12.19;100.00;100677.81;5097145;28;20064;-78
2023/08/30 05:04:48;;;;;;;15.00;9.13;;;;;;;12.10;100.00;100671.56;5078033;28;20476;-79
2023/08/30 05:07:13;;;;;;;14.73;8.75;;;;;;;12.03;100.00;100683.81;5095718;28;20046;-77
2023/08/30 05:09:40;;;;;;;15.90;9.60;;;;;;;11.95;100.00;100687.25;5095583;28;20024;-77
2023/08/30 05:12:06;;;;;;;14.10;8.98;;;;;;;11.90;100.00;100684.19;5095460;28;20108;-78
2023/08/30 05:14:32;;;;;;;19.83;9.88;;;;;;;11.85;100.00;100681.13;5076695;28;20040;-78
2023/08/30 05:16:57;;;;;;;19.65;10.73;;;;;;;11.81;100.00;100677.94;5076776;28;20040;-78
2023/08/30 05:19:22;;;;;;;23.55;10.80;;;;;;;11.79;100.00;100679.91;5094327;28;20077;-80
2023/08/30 05:21:51;;;;;;;20.55;11.50;;;;;;;11.76;100.00;100671.38;5094935;28;20032;-79
2023/08/30 05:24:16;;;;;;;19.85;10.63;;;;;;;11.74;100.00;100665.34;5094488;28;20038;-79
2023/08/30 05:26:42;;;;;;;20.67;11.35;;;;;;;11.71;100.00;100663.00;5094304;28;20033;-80
2023/08/30 05:29:07;;;;;;;24.05;12.57;;;;;;;11.71;100.00;100658.50;5094308;28;20052;-78
2023/08/30 05:31:33;;;;;;;28.38;12.57;;;;;;;11.69;100.00;100664.94;5094314;28;20040;-79
2023/08/30 05:33:58;;;;;;;28.20;13.00;;;;;;;11.69;100.00;100665.81;5094538;28;20028;-78
2023/08/30 05:36:23;;;;;;;30.23;13.43;;;;;;;11.68;100.00;100664.13;5076463;28;20081;-78
2023/08/30 05:38:49;;;;;;;30.67;13.88;;;;;;;11.70;100.00;100664.81;5095384;28;20042;-77
2023/08/30 05:41:14;;;;;;;25.63;14.00;;;;;;;11.71;100.00;100663.00;5077585;28;20032;-77
2023/08/30 05:43:39;;;;;;;27.13;13.77;;;;;;;11.69;100.00;100654.28;5095804;28;20432;-77
2023/08/30 05:46:05;;;;;;;29.40;13.60;;;;;;;11.69;100.00;100654.28;5077316;28;20029;-78
2023/08/30 05:48:31;;;;;;;35.78;14.93;;;;;;;11.70;100.00;100646.16;5095373;28;20456;-78
2023/08/30 05:50:57;;;;;;;35.50;15.43;;;;;;;11.71;100.00;100649.66;5094827;28;20383;-78
2023/08/30 05:53:23;;;;;;;33.10;15.90;;;;;;;11.68;100.00;100640.13;5094242;28;20042;-78
2023/08/30 05:55:48;;;;;;;29.92;15.45;;;;;;;11.65;100.00;100638.59;5094571;28;20161;-78
2023/08/30 05:58:15;;;;;;;30.45;15.13;;;;;;;11.64;100.00;100634.28;5094611;28;20032;-77
2023/08/30 06:00:41;;;;;;;34.75;16.00;;;;;;;11.63;100.00;100626.44;5093794;28;20055;-79
2023/08/30 06:03:06;;;;;;;33.72;16.38;;;;;;;11.63;100.00;100621.94;5094474;28;20032;-80
2023/08/30 06:05:32;;;;;;;36.55;16.20;;;;;;;11.67;100.00;100621.63;5093140;28;20153;-80
2023/08/30 06:07:58;;;;;;;28.95;15.77;;;;;;;11.66;100.00;100615.47;5094314;28;20484;-79
2023/08/30 06:10:23;;;;;;;31.65;16.45;;;;;;;11.65;100.00;100611.97;5093972;28;20036;-79
2023/08/30 06:12:48;;;;;;;30.55;15.65;;;;;;;11.64;100.00;100618.28;5094068;28;20428;-79
2023/08/30 06:15:14;;;;;;;33.60;16.48;;;;;;;11.67;100.00;100617.13;5093417;28;20036;-79
2023/08/30 06:17:39;;;;;;;31.48;16.70;;;;;;;11.67;100.00;100608.31;5093602;28;20472;-79
2023/08/30 06:20:05;;;;;;;37.65;17.02;;;;;;;11.69;100.00;100606.31;5094224;28;20024;-78
2023/08/30 06:22:31;;;;;;;33.47;17.60;;;;;;;11.68;100.00;100602.00;5094322;28;20538;-78
2023/08/30 06:24:56;;;;;;;34.08;17.63;;;;;;;11.71;100.00;100605.19;5094203;28;20024;-78
2023/08/30 06:27:23;;;;;;;33.08;17.23;;;;;;;11.73;100.00;100610.38;5075901;28;20036;-78
2023/08/30 06:29:48;;;;;;;34.70;18.33;;;;;;;11.76;100.00;100610.91;5094098;28;20060;-78
2023/08/30 06:32:14;;;;;;;41.55;18.20;;;;;;;11.82;100.00;100612.97;5094799;28;20119;-78
2023/08/30 06:34:39;;;;;;;38.75;18.80;;;;;;;11.85;100.00;100603.81;5094495;28;20028;-78
2023/08/30 06:37:04;;;;;;;36.28;17.17;;;;;;;11.93;100.00;100608.44;5093938;28;20472;-77
2023/08/30 06:39:37;;;;;;;34.15;17.27;;;;;;;11.98;100.00;100603.47;5076193;28;20060;-78
2023/08/30 06:42:03;;;;;;;37.92;18.13;;;;;;;12.02;100.00;100599.50;5093951;28;20031;-77
2023/08/30 06:44:29;;;;;;;33.03;16.70;;;;;;;12.01;100.00;100595.16;5075449;28;20036;-79
2023/08/30 06:46:56;;;;;;;35.75;16.80;;;;;;;12.02;100.00;100595.97;5093789;28;20460;-77
2023/08/30 06:49:21;;;;;;;32.40;16.15;;;;;;;12.05;100.00;100598.38;5093317;28;20498;-77
2023/08/30 06:51:47;;;;;;;34.42;17.15;;;;;;;12.07;100.00;100596.38;5075564;28;20110;-80
2023/08/30 06:54:12;;;;;;;27.83;15.02;;;;;;;12.09;100.00;100586.38;5093870;28;20119;-78
2023/08/30 06:56:38;;;;;;;27.40;14.73;;;;;;;12.10;100.00;100586.22;5093283;28;20120;-76
2023/08/30 06:59:03;;;;;;;25.17;13.45;;;;;;;12.19;100.00;100592.44;5075372;28;20036;-76
2023/08/30 07:01:28;;;;;;;23.05;12.70;;;;;;;12.25;100.00;100591.00;5093796;28;20059;-76
2023/08/30 07:03:54;;;;;;;23.95;12.10;;;;;;;12.26;100.00;100584.69;5093365;28;20059;-77
2023/08/30 07:06:19;;;;;;;21.63;11.93;;;;;;;12.32;100.00;100581.38;5092481;28;20035;-77
2023/08/30 07:08:44;;;;;;;18.98;10.98;;;;;;;12.38;100.00;100575.41;5075286;28;20036;-77
2023/08/30 07:11:10;;;;;;;22.00;10.35;;;;;;;12.42;100.00;100562.59;5076140;28;20029;-78
2023/08/30 07:13:36;;;;;;;17.60;10.63;;;;;;;12.49;100.00;100564.47;5093457;28;20480;-78
2023/08/30 07:16:01;;;;;;;17.08;9.93;;;;;;;12.55;100.00;100557.66;5093411;28;20074;-78
2023/08/30 07:18:26;;;;;;;17.30;9.90;;;;;;;12.64;100.00;100559.38;5075127;28;20122;-77
2023/08/30 07:20:52;;;;;;;17.75;10.13;;;;;;;12.75;100.00;100560.09;5058260;28;20087;-76
2023/08/30 07:23:17;;;;;;;14.20;9.52;;;;;;;12.76;100.00;100559.09;5075110;28;20032;-77
2023/08/30 07:25:42;;;;;;;38.17;11.43;;;;;;;12.73;100.00;100559.41;5093016;28;20043;-77
2023/08/30 07:28:08;;;;;;;13.43;8.90;;;;;;;12.74;100.00;100569.09;5093194;28;20020;-79
2023/08/30 07:30:35;;;;;;;13.88;9.68;;;;;;;12.70;100.00;100568.56;5092942;28;20543;-78
2023/08/30 07:33:01;;;;;;;14.15;9.02;;;;;;;12.69;100.00;100562.41;5093281;28;20030;-77
2023/08/30 07:35:26;;;;;;;14.13;10.27;;;;;;;12.68;100.00;100562.56;5093774;28;20032;-77
2023/08/30 07:37:51;;;;;;;17.58;9.95;;;;;;;12.66;100.00;100559.22;5092832;28;20498;-78
2023/08/30 07:40:17;;;;;;;15.25;10.43;;;;;;;12.73;100.00;100567.44;5093183;28;20027;-78
2023/08/30 07:42:42;;;;;;;14.30;10.30;;;;;;;12.78;100.00;100565.97;5093344;28;20028;-79
2023/08/30 07:45:09;;;;;;;14.48;10.57;;;;;;;12.83;100.00;100557.47;5075068;28;20028;-78
2023/08/30 07:47:34;;;;;;;17.90;11.63;;;;;;;12.99;100.00;100552.19;5093057;28;20063;-80
2023/08/30 07:50:00;;;;;;;13.90;11.02;;;;;;;13.03;100.00;100556.22;5092761;28;20073;-79
2023/08/30 07:52:25;;;;;;;15.13;10.80;;;;;;;12.99;100.00;100548.69;5093106;28;20089;-78
2023/08/30 07:54:50;;;;;;;14.48;11.18;;;;;;;13.07;100.00;100553.22;5075141;28;20464;-77
2023/08/30 07:57:16;;;;;;;16.90;11.90;;;;;;;13.10;100.00;100547.53;5093258;28;20024;-78
2023/08/30 07:59:41;;;;;;;13.55;10.70;;;;;;;13.08;100.00;100546.84;5075023;28;20031;-78
2023/08/30 08:02:07;;;;;;;15.57;11.20;;;;;;;13.09;100.00;100551.19;5093140;28;20076;-77
2023/08/30 08:04:34;;;;;;;13.50;11.00;;;;;;;13.09;100.00;100553.88;5092880;28;20600;-78
2023/08/30 08:06:59;;;;;;;15.35;12.18;;;;;;;13.05;100.00;100556.03;5092542;28;20077;-77
2023/08/30 08:09:25;;;;;;;16.95;11.98;;;;;;;13.08;100.00;100560.19;5075512;28;20016;-79
2023/08/30 08:11:50;;;;;;;15.57;12.10;;;;;;;13.07;100.00;100556.72;5092789;28;20380;-78
2023/08/30 08:14:16;;;;;;;17.25;11.25;;;;;;;13.09;100.00;100559.22;5074894;28;20043;-78
2023/08/30 08:16:41;;;;;;;17.23;12.30;;;;;;;13.12;100.00;100553.53;5093336;28;20066;-78
2023/08/30 08:19:07;;;;;;;16.00;11.80;;;;;;;13.15;100.00;100558.56;5078558;28;20046;-79
2023/08/30 08:21:35;;;;;;;20.67;12.43;;;;;;;13.17;100.00;100553.91;5097045;28;20106;-79
2023/08/30 08:24:01;;;;;;;17.95;13.05;;;;;;;13.34;100.00;100554.81;5096619;28;20088;-78
2023/08/30 08:26:26;;;;;;;16.33;12.07;;;;;;;13.67;100.00;100562.88;5078405;28;20031;-78
2023/08/30 08:28:53;;;;;;;14.38;10.70;;;;;;;14.05;100.00;100556.00;5097004;28;20069;-78
2023/08/30 08:31:18;;;;;;;6.00;5.40;;;;;;;14.36;100.00;100557.97;5097103;28;20067;-78
2023/08/30 08:33:44;;;;;;;6.30;3.90;;;;;;;14.75;100.00;100557.22;5096451;28;20067;-79
2023/08/30 08:36:09;;;;;;;5.43;2.20;;;;;;;15.07;100.00;100563.44;5078170;28;20071;-80
2023/08/30 08:38:34;;;;;;;4.25;2.45;;;;;;;15.33;100.00;100564.97;5096823;28;20089;-78
2023/08/30 08:41:06;;;;;;;3.72;2.50;;;;;;;15.55;100.00;100563.31;5096041;28;20027;-78
2023/08/30 08:43:35;;;;;;;3.85;2.05;;;;;;;15.74;100.00;100570.03;5096584;28;20115;-79
2023/08/30 08:46:00;;;;;;;6.05;2.28;;;;;;;16.11;100.00;100565.75;5078353;28;20028;-79
2023/08/30 08:48:33;;;;;;;3.08;2.00;;;;;;;16.41;100.00;100579.22;5096375;28;20073;-79
2023/08/30 08:51:00;;;;;;;5.28;2.25;;;;;;;16.86;100.00;100569.28;5095773;28;20031;-79
2023/08/30 08:53:25;;;;;;;4.32;2.10;;;;;;;17.38;100.00;100569.31;5077782;28;20041;-78
2023/08/30 08:55:52;;;;;;;6.18;2.25;;;;;;;17.50;100.00;100564.28;5096005;28;20038;-77
2023/08/30 08:58:17;;;;;;;7.40;2.60;;;;;;;17.32;100.00;100570.91;5078069;28;20029;-78
2023/08/30 09:00:44;;;;;;;9.35;2.63;;;;;;;17.42;100.00;100570.59;5096232;28;20048;-78
2023/08/30 09:03:10;;;;;;;7.57;3.00;;;;;;;17.21;100.00;100576.78;5096662;28;20027;-80
2023/08/30 09:05:38;;;;;;;7.82;2.45;;;;;;;16.70;100.00;100567.63;5095801;28;20107;-79
2023/08/30 09:08:05;;;;;;;11.48;3.10;;;;;;;17.12;100.00;100577.91;5095797;28;20028;-77
2023/08/30 09:10:32;;;;;;;7.50;2.80;;;;;;;17.58;100.00;100586.47;5077561;28;20479;-79
2023/08/30 09:12:58;;;;;;;9.57;2.75;;;;;;;18.60;100.00;100584.44;5095647;28;20028;-78
2023/08/30 09:15:33;;;;;;;10.00;2.65;;;;;;;18.68;100.00;100589.66;5095919;28;20063;-78
2023/08/30 09:17:58;;;;;;;6.13;2.13;;;;;;;18.15;100.00;100586.59;5096085;28;20115;-80
2023/08/30 09:20:24;;;;;;;9.07;2.20;;;;;;;17.64;100.00;100587.56;5077245;28;20124;-79
2023/08/30 09:22:50;;;;;;;10.40;2.20;;;;;;;17.72;100.00;100592.00;5095226;28;20036;-79
2023/08/30 09:25:26;;;;;;;11.63;2.75;;;;;;;18.29;100.00;100584.88;5095336;28;20028;-77
2023/08/30 09:28:01;;;;;;;10.15;2.25;;;;;;;17.97;100.00;100593.31;5095961;28;20040;-79
2023/08/30 09:30:27;;;;;;;6.95;2.10;;;;;;;17.59;100.00;100592.72;5094717;28;20035;-77
2023/08/30 09:32:53;;;;;;;12.07;2.85;;;;;;;17.48;100.00;100593.19;5077251;28;20472;-78
2023/08/30 09:35:18;;;;;;;7.28;2.20;;;;;;;17.55;100.00;100591.41;5095063;28;20047;-79
2023/08/30 09:37:47;;;;;;;7.30;2.45;;;;;;;18.56;100.00;100596.66;5095265;28;20039;-79
2023/08/30 09:40:18;;;;;;;10.55;2.88;;;;;;;19.74;100.00;100585.69;5060679;28;20032;-78
2023/08/30 09:42:43;;;;;;;;;;;;;;;20.57;100.00;100589.88;5078033;28;20036;-78
2023/08/30 09:45:22;;;;;;;10.85;2.28;;;;;;;20.95;100.00;100578.34;5094658;28;20382;-78
2023/08/30 09:47:50;;;;;;;11.38;2.50;;;;;;;20.32;100.00;100589.69;5094811;28;20024;-78
2023/08/30 09:50:19;;;;;;;7.57;2.25;;;;;;;19.20;100.00;100595.53;5095036;28;20111;-78
2023/08/30 09:52:49;;;;;;;9.38;2.92;;;;;;;18.20;100.00;100588.72;5076717;28;20169;-78
2023/08/30 09:55:15;;;;;;;7.28;2.00;;;;;;;17.74;100.00;100598.03;5094788;28;20028;-79
2023/08/30 09:57:43;;;;;;;6.47;2.10;;;;;;;17.38;100.00;100601.59;5095046;28;20028;-79
2023/08/30 10:00:12;;;;;;;8.35;2.30;;;;;;;17.20;100.00;100599.31;5094811;28;20075;-78
2023/08/30 10:02:41;;;;;;;10.27;2.55;;;;;;;17.87;100.00;100597.31;5095484;28;20032;-77
2023/08/30 10:05:08;;;;;;;9.15;2.38;;;;;;;19.19;100.00;100603.84;5076801;28;20032;-77
2023/08/30 10:07:36;;;;;;;7.20;2.28;;;;;;;20.70;100.00;100591.72;5094961;28;20107;-77
2023/08/30 10:10:04;;;;;;;16.02;3.15;;;;;;;21.43;100.00;100606.81;5077262;28;20057;-78
2023/08/30 10:12:32;;;;;;;7.78;2.15;;;;;;;21.26;100.00;100598.38;5096083;28;20079;-78
2023/08/30 10:14:57;;;;;;;10.82;2.10;;;;;;;20.52;100.00;100596.94;5095026;28;20024;-78
2023/08/30 10:17:27;;;;;;;9.02;2.60;;;;;;;20.09;100.00;100603.63;5095082;28;20361;-78
2023/08/30 10:19:55;;;;;;;11.60;2.75;;;;;;;19.56;100.00;100599.78;5076401;28;20089;-77
2023/08/30 10:22:21;;;;;;;9.95;2.30;;;;;;;18.99;100.00;100606.47;5075921;28;20135;-78
2023/08/30 10:24:51;;;;;;;8.20;2.20;;;;;;;18.97;100.00;100600.41;5094185;28;20112;-77
2023/08/30 10:27:17;;;;;;;9.23;2.30;;;;;;;19.89;100.00;100603.63;5075979;28;20364;-79
2023/08/30 10:29:45;;;;;;;13.15;2.25;;;;;;;20.39;100.00;100603.19;5094232;28;20035;-78
2023/08/30 10:32:11;;;;;;;10.90;2.58;;;;;;;20.09;100.00;100614.41;5075806;28;20032;-78
2023/08/30 10:34:37;;;;;;;10.18;2.05;;;;;;;20.01;100.00;100612.75;5094506;28;20453;-77
2023/08/30 10:37:08;;;;;;;11.27;3.13;;;;;;;20.00;100.00;100605.69;5075962;28;20104;-78
2023/08/30 10:39:38;;;;;;;7.90;2.20;;;;;;;20.28;100.00;100618.16;5094325;28;20032;-79
2023/08/30 10:42:15;;;;;;;8.20;2.30;;;;;;;20.08;100.00;100608.19;5074501;28;20039;-79
2023/08/30 10:44:51;;;;;;;6.80;2.08;;;;;;;20.57;100.00;100610.63;5093752;28;20066;-77
2023/08/30 10:47:25;;;;;;;11.45;2.45;;;;;;;20.93;100.00;100618.28;5093773;28;20028;-78
2023/08/30 10:49:54;;;;;;;8.15;2.03;;;;;;;20.62;100.00;100621.66;5093460;28;20484;-78
2023/08/30 10:52:19;;;;;;;8.70;1.92;;;;;;;20.25;100.00;100632.09;5094266;28;20083;-77
2023/08/30 10:54:44;;;;;;;9.57;2.28;;;;;;;19.99;100.00;100631.03;5076237;28;20031;-77
2023/08/30 10:57:21;;;;;;;5.20;1.80;;;;;;;20.42;100.00;100632.47;5093895;28;20028;-77
2023/08/30 11:00:09;;;;;;;7.22;2.00;;;;;;;21.42;95.15;100628.69;5093556;28;20089;-77
2023/08/30 11:02:37;;;;;;;7.00;1.75;;;;;;;21.84;93.66;100627.22;5075892;28;20490;-78
2023/08/30 11:05:06;;;;;;;11.05;2.72;;;;;;;20.95;87.90;100626.19;5075862;28;20024;-79
2023/08/30 11:07:31;;;;;;;6.10;2.20;;;;;;;20.09;89.89;100633.31;5075406;28;20031;-79